Hlavní strana
METAR-TAF:

METAR-TAF

Letiště :

Bělgorod, Rusko

zeměpisná šířka: 50-38-36N, zeměpisná délka: 036-35-24E, výška: 224 m

Aktuální stav počasí

Zpráva byla vytvořena před 30 minutami, v 13:00 UTC
Jihojihozápadní vítr 2 kt
Teplota 1°C
Vlhkost vzduchu 93%
Tlak 1016 hPa
Viditelnost: 4400 m
Oblačno až skoro zataženo ve výšce 500 ft, Cumulonimbus.
slabé sněhové přeháňky, kouřmo

METAR: UUOB 251300Z 21001MPS 4400 -SHSN BR BKN005CB 01/00 Q1016 R29/290050 TEMPO 1000 BR

Čas: 16:30 (13:30 UTC)

Předpověď počasí

Zpráva byla vytvořena před 2 hodinami a 30 minutami, v 11:00 UTC
Předpověď platná od 25 v 12 UTC do 25 v 21 UTC
Západní vítr 8 kt
Viditelnost: 3100 m
Oblačno až skoro zataženo ve výšce 700 ft, Cumulonimbus.
kouřmo
Dočasný
od 25 v 12 UTC do 25 v 18 UTC
Viditelnost: 2000 m
Oblačno až skoro zataženo ve výšce 500 ft, Cumulonimbus.
sněhové přeháňky, déšť

TAF: UUOB 251100Z 2512/2521 26004MPS 3100 BR BKN007CB TEMPO 2512/2518 2000 SHSNRA BKN005CB

Stav a předpovědi počasí z více než 4 000 letišť (zprávy METAR a TAF).

Červené a žluté tečky na mapě představují dostupné meteorologické stanice.

Když kurzor umístíte na tečku, zobrazí se název stanice.

Pak kliknutím zobrazíte stav a předpověď počasí.

Chcete-li změnit mapu, kliknutím na zelené tlačítko se znaménkem +mapu přiblížíte, kliknutím na zelené tlačítko se znaménkem – mapu oddálíte a kliknutím na zelené šipky přejdete na sousední mapy.


METAR-TAF: